sensor_id;sensor_type;location;lat;lon;timestamp;P1;durP1;ratioP1;P2;durP2;ratioP2
65009;SDS011;51556;50.002;22.014;2023-07-31T00:01:58;4.40;;;2.10;;
65009;SDS011;51556;50.002;22.014;2023-07-31T00:04:23;3.70;;;2.00;;
65009;SDS011;51556;50.002;22.014;2023-07-31T00:06:49;3.30;;;2.10;;
65009;SDS011;51556;50.002;22.014;2023-07-31T00:09:14;3.70;;;2.40;;
65009;SDS011;51556;50.002;22.014;2023-07-31T00:11:40;6.00;;;2.10;;
65009;SDS011;51556;50.002;22.014;2023-07-31T00:14:05;3.50;;;2.00;;
65009;SDS011;51556;50.002;22.014;2023-07-31T00:16:30;3.70;;;2.10;;
65009;SDS011;51556;50.002;22.014;2023-07-31T00:18:56;3.50;;;2.20;;
65009;SDS011;51556;50.002;22.014;2023-07-31T00:21:21;3.40;;;2.30;;
65009;SDS011;51556;50.002;22.014;2023-07-31T00:23:47;3.20;;;2.20;;
65009;SDS011;51556;50.002;22.014;2023-07-31T00:26:12;8.10;;;2.40;;
65009;SDS011;51556;50.002;22.014;2023-07-31T00:28:38;3.50;;;2.20;;
65009;SDS011;51556;50.002;22.014;2023-07-31T00:31:03;2.90;;;2.10;;
65009;SDS011;51556;50.002;22.014;2023-07-31T00:33:30;4.20;;;2.10;;
65009;SDS011;51556;50.002;22.014;2023-07-31T00:35:56;4.80;;;2.20;;
65009;SDS011;51556;50.002;22.014;2023-07-31T00:38:22;3.90;;;2.10;;
65009;SDS011;51556;50.002;22.014;2023-07-31T00:40:47;3.30;;;2.10;;
65009;SDS011;51556;50.002;22.014;2023-07-31T00:43:12;3.90;;;2.20;;
65009;SDS011;51556;50.002;22.014;2023-07-31T00:45:38;2.50;;;1.90;;
65009;SDS011;51556;50.002;22.014;2023-07-31T00:48:04;3.70;;;2.20;;
65009;SDS011;51556;50.002;22.014;2023-07-31T00:50:31;4.30;;;2.30;;
65009;SDS011;51556;50.002;22.014;2023-07-31T00:52:58;4.20;;;2.10;;
65009;SDS011;51556;50.002;22.014;2023-07-31T00:55:24;4.00;;;2.10;;
65009;SDS011;51556;50.002;22.014;2023-07-31T00:57:49;5.20;;;2.10;;
65009;SDS011;51556;50.002;22.014;2023-07-31T01:00:17;3.10;;;2.00;;
65009;SDS011;51556;50.002;22.014;2023-07-31T01:02:43;3.20;;;2.00;;
65009;SDS011;51556;50.002;22.014;2023-07-31T01:05:09;4.60;;;2.40;;
65009;SDS011;51556;50.002;22.014;2023-07-31T01:10:23;4.40;;;2.10;;
65009;SDS011;51556;50.002;22.014;2023-07-31T01:12:59;2.80;;;1.90;;
65009;SDS011;51556;50.002;22.014;2023-07-31T01:15:25;3.40;;;2.30;;
65009;SDS011;51556;50.002;22.014;2023-07-31T01:17:51;3.90;;;2.30;;
65009;SDS011;51556;50.002;22.014;2023-07-31T01:20:23;3.60;;;2.00;;
65009;SDS011;51556;50.002;22.014;2023-07-31T01:28:46;5.30;;;2.70;;
65009;SDS011;51556;50.002;22.014;2023-07-31T01:31:39;3.60;;;2.10;;
65009;SDS011;51556;50.002;22.014;2023-07-31T01:34:07;3.60;;;2.20;;
65009;SDS011;51556;50.002;22.014;2023-07-31T01:36:35;3.00;;;2.20;;
65009;SDS011;51556;50.002;22.014;2023-07-31T01:39:01;4.00;;;2.30;;
65009;SDS011;51556;50.002;22.014;2023-07-31T01:41:28;5.20;;;2.40;;
65009;SDS011;51556;50.002;22.014;2023-07-31T01:43:53;4.40;;;3.30;;
65009;SDS011;51556;50.002;22.014;2023-07-31T01:46:19;2.30;;;1.70;;
65009;SDS011;51556;50.002;22.014;2023-07-31T01:48:44;4.50;;;2.10;;
65009;SDS011;51556;50.002;22.014;2023-07-31T01:51:10;3.00;;;2.00;;
65009;SDS011;51556;50.002;22.014;2023-07-31T01:53:35;4.70;;;2.30;;
65009;SDS011;51556;50.002;22.014;2023-07-31T01:56:01;6.60;;;2.40;;
65009;SDS011;51556;50.002;22.014;2023-07-31T01:58:26;2.80;;;2.20;;
65009;SDS011;51556;50.002;22.014;2023-07-31T02:00:52;2.60;;;2.10;;
65009;SDS011;51556;50.002;22.014;2023-07-31T02:03:17;3.20;;;2.20;;
65009;SDS011;51556;50.002;22.014;2023-07-31T02:05:46;3.60;;;2.30;;
65009;SDS011;51556;50.002;22.014;2023-07-31T02:08:12;2.60;;;2.00;;
65009;SDS011;51556;50.002;22.014;2023-07-31T02:10:38;2.30;;;2.10;;
65009;SDS011;51556;50.002;22.014;2023-07-31T02:13:03;3.00;;;2.20;;
65009;SDS011;51556;50.002;22.014;2023-07-31T02:15:31;3.10;;;2.30;;
65009;SDS011;51556;50.002;22.014;2023-07-31T02:17:57;3.70;;;2.20;;
65009;SDS011;51556;50.002;22.014;2023-07-31T02:20:22;3.20;;;2.70;;
65009;SDS011;51556;50.002;22.014;2023-07-31T02:22:48;5.20;;;2.20;;
65009;SDS011;51556;50.002;22.014;2023-07-31T02:25:13;2.90;;;2.40;;
65009;SDS011;51556;50.002;22.014;2023-07-31T02:27:39;4.10;;;2.30;;
65009;SDS011;51556;50.002;22.014;2023-07-31T02:30:04;2.80;;;2.20;;
65009;SDS011;51556;50.002;22.014;2023-07-31T02:32:30;4.00;;;2.50;;
65009;SDS011;51556;50.002;22.014;2023-07-31T02:34:56;3.00;;;2.40;;
65009;SDS011;51556;50.002;22.014;2023-07-31T02:37:21;2.90;;;2.30;;
65009;SDS011;51556;50.002;22.014;2023-07-31T02:39:47;6.30;;;2.60;;
65009;SDS011;51556;50.002;22.014;2023-07-31T02:42:13;3.70;;;2.30;;
65009;SDS011;51556;50.002;22.014;2023-07-31T02:44:39;5.00;;;2.40;;
65009;SDS011;51556;50.002;22.014;2023-07-31T02:47:04;4.30;;;2.50;;
65009;SDS011;51556;50.002;22.014;2023-07-31T02:49:30;4.40;;;2.40;;
65009;SDS011;51556;50.002;22.014;2023-07-31T02:51:55;6.60;;;2.30;;
65009;SDS011;51556;50.002;22.014;2023-07-31T02:54:21;4.60;;;2.50;;
65009;SDS011;51556;50.002;22.014;2023-07-31T02:56:47;5.50;;;2.30;;
65009;SDS011;51556;50.002;22.014;2023-07-31T02:59:12;3.80;;;2.30;;
65009;SDS011;51556;50.002;22.014;2023-07-31T03:01:38;5.00;;;2.60;;
65009;SDS011;51556;50.002;22.014;2023-07-31T03:04:03;4.10;;;2.70;;
65009;SDS011;51556;50.002;22.014;2023-07-31T03:06:29;4.00;;;2.60;;
65009;SDS011;51556;50.002;22.014;2023-07-31T03:08:55;3.60;;;2.30;;
65009;SDS011;51556;50.002;22.014;2023-07-31T03:11:20;3.10;;;2.20;;
65009;SDS011;51556;50.002;22.014;2023-07-31T03:13:46;6.60;;;2.10;;
65009;SDS011;51556;50.002;22.014;2023-07-31T03:16:11;3.70;;;2.30;;
65009;SDS011;51556;50.002;22.014;2023-07-31T03:18:37;4.10;;;2.80;;
65009;SDS011;51556;50.002;22.014;2023-07-31T03:21:02;2.60;;;2.00;;
65009;SDS011;51556;50.002;22.014;2023-07-31T03:23:27;3.40;;;2.30;;
65009;SDS011;51556;50.002;22.014;2023-07-31T03:26:00;4.60;;;2.60;;
65009;SDS011;51556;50.002;22.014;2023-07-31T03:28:28;2.60;;;2.20;;
65009;SDS011;51556;50.002;22.014;2023-07-31T03:30:53;3.30;;;2.20;;
65009;SDS011;51556;50.002;22.014;2023-07-31T03:33:19;5.40;;;2.10;;
65009;SDS011;51556;50.002;22.014;2023-07-31T03:35:45;3.70;;;2.10;;
65009;SDS011;51556;50.002;22.014;2023-07-31T03:38:10;3.20;;;1.90;;
65009;SDS011;51556;50.002;22.014;2023-07-31T03:40:36;6.30;;;2.50;;
65009;SDS011;51556;50.002;22.014;2023-07-31T03:43:01;3.00;;;2.00;;
65009;SDS011;51556;50.002;22.014;2023-07-31T03:45:27;2.80;;;2.00;;
65009;SDS011;51556;50.002;22.014;2023-07-31T03:47:52;2.40;;;1.80;;
65009;SDS011;51556;50.002;22.014;2023-07-31T03:50:19;2.90;;;2.20;;
65009;SDS011;51556;50.002;22.014;2023-07-31T03:52:45;4.30;;;2.20;;
65009;SDS011;51556;50.002;22.014;2023-07-31T03:55:10;5.60;;;2.70;;
65009;SDS011;51556;50.002;22.014;2023-07-31T03:57:36;5.60;;;2.40;;
65009;SDS011;51556;50.002;22.014;2023-07-31T04:00:01;7.50;;;2.50;;
65009;SDS011;51556;50.002;22.014;2023-07-31T04:02:27;5.00;;;2.10;;
65009;SDS011;51556;50.002;22.014;2023-07-31T04:04:52;4.40;;;2.30;;
65009;SDS011;51556;50.002;22.014;2023-07-31T04:07:18;2.80;;;1.90;;
65009;SDS011;51556;50.002;22.014;2023-07-31T04:09:43;3.80;;;2.10;;
65009;SDS011;51556;50.002;22.014;2023-07-31T04:12:09;3.40;;;2.10;;
65009;SDS011;51556;50.002;22.014;2023-07-31T04:14:34;6.80;;;2.30;;
65009;SDS011;51556;50.002;22.014;2023-07-31T04:17:00;4.00;;;2.00;;
65009;SDS011;51556;50.002;22.014;2023-07-31T04:19:25;5.10;;;2.20;;
65009;SDS011;51556;50.002;22.014;2023-07-31T04:21:50;3.90;;;2.10;;
65009;SDS011;51556;50.002;22.014;2023-07-31T04:24:16;7.30;;;2.40;;
65009;SDS011;51556;50.002;22.014;2023-07-31T04:26:47;5.70;;;2.40;;
65009;SDS011;51556;50.002;22.014;2023-07-31T04:29:12;3.80;;;2.40;;
65009;SDS011;51556;50.002;22.014;2023-07-31T04:31:38;3.00;;;2.10;;
65009;SDS011;51556;50.002;22.014;2023-07-31T04:34:03;4.10;;;2.20;;
65009;SDS011;51556;50.002;22.014;2023-07-31T04:36:28;3.10;;;2.10;;
65009;SDS011;51556;50.002;22.014;2023-07-31T04:38:54;3.40;;;2.10;;
65009;SDS011;51556;50.002;22.014;2023-07-31T04:41:19;4.30;;;2.30;;
65009;SDS011;51556;50.002;22.014;2023-07-31T04:43:45;3.30;;;2.10;;
65009;SDS011;51556;50.002;22.014;2023-07-31T04:46:10;5.10;;;2.00;;
65009;SDS011;51556;50.002;22.014;2023-07-31T04:48:36;3.20;;;1.90;;
65009;SDS011;51556;50.002;22.014;2023-07-31T04:51:01;6.40;;;1.80;;
65009;SDS011;51556;50.002;22.014;2023-07-31T04:53:27;3.40;;;2.20;;
65009;SDS011;51556;50.002;22.014;2023-07-31T04:55:52;3.00;;;1.90;;
65009;SDS011;51556;50.002;22.014;2023-07-31T04:58:18;3.10;;;2.20;;
65009;SDS011;51556;50.002;22.014;2023-07-31T05:00:43;3.70;;;2.10;;
65009;SDS011;51556;50.002;22.014;2023-07-31T05:03:09;3.10;;;1.90;;
65009;SDS011;51556;50.002;22.014;2023-07-31T05:05:36;3.40;;;1.70;;
65009;SDS011;51556;50.002;22.014;2023-07-31T05:08:02;3.10;;;2.10;;
65009;SDS011;51556;50.002;22.014;2023-07-31T05:10:28;3.70;;;1.90;;
65009;SDS011;51556;50.002;22.014;2023-07-31T05:12:53;4.50;;;2.00;;
65009;SDS011;51556;50.002;22.014;2023-07-31T05:15:18;2.80;;;1.70;;
65009;SDS011;51556;50.002;22.014;2023-07-31T05:17:44;3.90;;;2.00;;
65009;SDS011;51556;50.002;22.014;2023-07-31T05:20:09;4.00;;;1.90;;
65009;SDS011;51556;50.002;22.014;2023-07-31T05:22:35;3.20;;;1.40;;
65009;SDS011;51556;50.002;22.014;2023-07-31T05:25:01;3.30;;;1.90;;
65009;SDS011;51556;50.002;22.014;2023-07-31T05:27:26;2.70;;;2.00;;
65009;SDS011;51556;50.002;22.014;2023-07-31T05:29:52;5.70;;;2.20;;
65009;SDS011;51556;50.002;22.014;2023-07-31T05:32:17;5.80;;;1.80;;
65009;SDS011;51556;50.002;22.014;2023-07-31T05:34:43;4.00;;;2.10;;
65009;SDS011;51556;50.002;22.014;2023-07-31T05:37:09;5.80;;;1.80;;
65009;SDS011;51556;50.002;22.014;2023-07-31T05:39:36;2.60;;;1.80;;
65009;SDS011;51556;50.002;22.014;2023-07-31T05:42:01;3.60;;;1.90;;
65009;SDS011;51556;50.002;22.014;2023-07-31T05:44:27;4.40;;;2.10;;
65009;SDS011;51556;50.002;22.014;2023-07-31T05:46:52;3.90;;;2.40;;
65009;SDS011;51556;50.002;22.014;2023-07-31T05:49:18;5.00;;;2.60;;
65009;SDS011;51556;50.002;22.014;2023-07-31T05:51:43;5.30;;;2.50;;
65009;SDS011;51556;50.002;22.014;2023-07-31T05:54:09;3.20;;;2.70;;
65009;SDS011;51556;50.002;22.014;2023-07-31T05:56:34;5.40;;;2.50;;
65009;SDS011;51556;50.002;22.014;2023-07-31T05:59:00;5.40;;;3.10;;
65009;SDS011;51556;50.002;22.014;2023-07-31T06:01:25;4.50;;;2.60;;
65009;SDS011;51556;50.002;22.014;2023-07-31T06:03:50;3.60;;;2.30;;
65009;SDS011;51556;50.002;22.014;2023-07-31T06:06:16;10.00;;;2.90;;
65009;SDS011;51556;50.002;22.014;2023-07-31T06:08:42;4.50;;;2.30;;
65009;SDS011;51556;50.002;22.014;2023-07-31T06:11:07;4.90;;;2.20;;
65009;SDS011;51556;50.002;22.014;2023-07-31T06:13:34;4.40;;;2.50;;
65009;SDS011;51556;50.002;22.014;2023-07-31T06:15:59;5.30;;;2.70;;
65009;SDS011;51556;50.002;22.014;2023-07-31T06:18:25;5.90;;;2.80;;
65009;SDS011;51556;50.002;22.014;2023-07-31T06:20:50;5.80;;;2.40;;
65009;SDS011;51556;50.002;22.014;2023-07-31T06:23:18;4.10;;;2.50;;
65009;SDS011;51556;50.002;22.014;2023-07-31T06:25:45;4.40;;;2.50;;
65009;SDS011;51556;50.002;22.014;2023-07-31T06:28:10;4.00;;;2.20;;
65009;SDS011;51556;50.002;22.014;2023-07-31T06:30:36;5.70;;;2.50;;
65009;SDS011;51556;50.002;22.014;2023-07-31T06:33:01;5.00;;;2.40;;
65009;SDS011;51556;50.002;22.014;2023-07-31T06:35:27;5.00;;;2.40;;
65009;SDS011;51556;50.002;22.014;2023-07-31T06:37:52;5.20;;;2.60;;
65009;SDS011;51556;50.002;22.014;2023-07-31T06:40:18;6.20;;;2.50;;
65009;SDS011;51556;50.002;22.014;2023-07-31T06:42:44;3.20;;;2.40;;
65009;SDS011;51556;50.002;22.014;2023-07-31T06:45:10;5.20;;;2.10;;
65009;SDS011;51556;50.002;22.014;2023-07-31T06:47:35;3.90;;;2.20;;
65009;SDS011;51556;50.002;22.014;2023-07-31T06:50:01;4.00;;;2.50;;
65009;SDS011;51556;50.002;22.014;2023-07-31T06:52:26;3.30;;;2.30;;
65009;SDS011;51556;50.002;22.014;2023-07-31T06:55:15;7.00;;;2.60;;
65009;SDS011;51556;50.002;22.014;2023-07-31T06:57:48;4.90;;;2.60;;
65009;SDS011;51556;50.002;22.014;2023-07-31T07:00:16;3.40;;;2.10;;
65009;SDS011;51556;50.002;22.014;2023-07-31T07:02:43;4.20;;;2.60;;
65009;SDS011;51556;50.002;22.014;2023-07-31T07:05:08;4.10;;;1.90;;
65009;SDS011;51556;50.002;22.014;2023-07-31T07:07:34;4.60;;;2.40;;
65009;SDS011;51556;50.002;22.014;2023-07-31T07:10:00;7.60;;;2.40;;
65009;SDS011;51556;50.002;22.014;2023-07-31T07:12:27;4.50;;;2.50;;
65009;SDS011;51556;50.002;22.014;2023-07-31T07:14:54;4.70;;;2.40;;
65009;SDS011;51556;50.002;22.014;2023-07-31T07:17:19;3.80;;;2.30;;
65009;SDS011;51556;50.002;22.014;2023-07-31T07:19:45;7.30;;;3.00;;
65009;SDS011;51556;50.002;22.014;2023-07-31T07:22:10;4.60;;;2.80;;
65009;SDS011;51556;50.002;22.014;2023-07-31T07:24:36;4.60;;;2.30;;
65009;SDS011;51556;50.002;22.014;2023-07-31T07:27:02;3.30;;;2.60;;
65009;SDS011;51556;50.002;22.014;2023-07-31T07:29:27;4.50;;;2.60;;
65009;SDS011;51556;50.002;22.014;2023-07-31T07:31:53;3.40;;;2.50;;
65009;SDS011;51556;50.002;22.014;2023-07-31T07:34:18;3.10;;;2.20;;
65009;SDS011;51556;50.002;22.014;2023-07-31T07:36:44;3.00;;;2.30;;
65009;SDS011;51556;50.002;22.014;2023-07-31T07:39:10;4.30;;;2.50;;
65009;SDS011;51556;50.002;22.014;2023-07-31T07:41:36;5.40;;;2.40;;
65009;SDS011;51556;50.002;22.014;2023-07-31T07:44:01;4.00;;;2.00;;
65009;SDS011;51556;50.002;22.014;2023-07-31T07:46:26;2.70;;;2.00;;
65009;SDS011;51556;50.002;22.014;2023-07-31T07:48:52;4.10;;;2.50;;
65009;SDS011;51556;50.002;22.014;2023-07-31T07:51:17;4.30;;;2.20;;
65009;SDS011;51556;50.002;22.014;2023-07-31T07:53:43;4.10;;;2.30;;
65009;SDS011;51556;50.002;22.014;2023-07-31T07:56:08;4.20;;;2.70;;
65009;SDS011;51556;50.002;22.014;2023-07-31T07:58:34;4.10;;;2.30;;
65009;SDS011;51556;50.002;22.014;2023-07-31T08:00:59;6.00;;;2.40;;
65009;SDS011;51556;50.002;22.014;2023-07-31T08:03:24;4.50;;;2.40;;
65009;SDS011;51556;50.002;22.014;2023-07-31T08:05:50;3.50;;;2.10;;
65009;SDS011;51556;50.002;22.014;2023-07-31T08:08:15;4.70;;;2.60;;
65009;SDS011;51556;50.002;22.014;2023-07-31T08:10:42;3.10;;;2.20;;
65009;SDS011;51556;50.002;22.014;2023-07-31T08:13:07;5.10;;;2.50;;
65009;SDS011;51556;50.002;22.014;2023-07-31T08:15:33;5.90;;;2.70;;
65009;SDS011;51556;50.002;22.014;2023-07-31T08:17:58;4.10;;;2.90;;
65009;SDS011;51556;50.002;22.014;2023-07-31T08:20:23;3.20;;;2.60;;
65009;SDS011;51556;50.002;22.014;2023-07-31T08:22:49;6.00;;;2.70;;
65009;SDS011;51556;50.002;22.014;2023-07-31T08:25:14;3.50;;;2.70;;
65009;SDS011;51556;50.002;22.014;2023-07-31T08:27:43;5.10;;;2.80;;
65009;SDS011;51556;50.002;22.014;2023-07-31T08:30:09;2.90;;;2.40;;
65009;SDS011;51556;50.002;22.014;2023-07-31T08:32:36;4.90;;;2.50;;
65009;SDS011;51556;50.002;22.014;2023-07-31T08:35:02;3.50;;;2.50;;
65009;SDS011;51556;50.002;22.014;2023-07-31T08:37:28;3.00;;;2.60;;
65009;SDS011;51556;50.002;22.014;2023-07-31T08:39:53;4.60;;;2.70;;
65009;SDS011;51556;50.002;22.014;2023-07-31T08:42:19;3.70;;;2.70;;
65009;SDS011;51556;50.002;22.014;2023-07-31T08:44:45;3.10;;;2.20;;
65009;SDS011;51556;50.002;22.014;2023-07-31T08:47:12;3.40;;;2.60;;
65009;SDS011;51556;50.002;22.014;2023-07-31T08:49:38;4.20;;;2.30;;
65009;SDS011;51556;50.002;22.014;2023-07-31T08:52:06;3.20;;;2.70;;
65009;SDS011;51556;50.002;22.014;2023-07-31T08:54:31;2.40;;;2.20;;
65009;SDS011;51556;50.002;22.014;2023-07-31T08:56:58;4.40;;;2.30;;
65009;SDS011;51556;50.002;22.014;2023-07-31T08:59:25;2.70;;;2.10;;
65009;SDS011;51556;50.002;22.014;2023-07-31T09:01:54;3.20;;;2.20;;
65009;SDS011;51556;50.002;22.014;2023-07-31T09:04:23;3.50;;;2.10;;
65009;SDS011;51556;50.002;22.014;2023-07-31T09:06:49;3.70;;;2.10;;
65009;SDS011;51556;50.002;22.014;2023-07-31T09:09:19;2.90;;;2.10;;
65009;SDS011;51556;50.002;22.014;2023-07-31T09:11:45;2.30;;;2.10;;
65009;SDS011;51556;50.002;22.014;2023-07-31T09:14:11;3.10;;;1.70;;
65009;SDS011;51556;50.002;22.014;2023-07-31T09:16:51;2.10;;;1.80;;
65009;SDS011;51556;50.002;22.014;2023-07-31T09:19:24;2.80;;;1.60;;
65009;SDS011;51556;50.002;22.014;2023-07-31T09:21:52;2.90;;;1.70;;
65009;SDS011;51556;50.002;22.014;2023-07-31T09:24:28;3.30;;;1.80;;
65009;SDS011;51556;50.002;22.014;2023-07-31T09:26:55;2.80;;;2.10;;
65009;SDS011;51556;50.002;22.014;2023-07-31T09:29:24;1.90;;;1.70;;
65009;SDS011;51556;50.002;22.014;2023-07-31T09:31:51;2.90;;;2.40;;
65009;SDS011;51556;50.002;22.014;2023-07-31T09:34:17;2.60;;;1.90;;
65009;SDS011;51556;50.002;22.014;2023-07-31T09:36:44;2.90;;;1.90;;
65009;SDS011;51556;50.002;22.014;2023-07-31T09:39:13;3.50;;;2.00;;
65009;SDS011;51556;50.002;22.014;2023-07-31T09:41:41;3.20;;;2.20;;
65009;SDS011;51556;50.002;22.014;2023-07-31T09:44:08;4.10;;;1.90;;
65009;SDS011;51556;50.002;22.014;2023-07-31T09:46:35;3.70;;;2.10;;
65009;SDS011;51556;50.002;22.014;2023-07-31T09:49:11;3.50;;;2.10;;
65009;SDS011;51556;50.002;22.014;2023-07-31T09:51:39;3.10;;;2.00;;
65009;SDS011;51556;50.002;22.014;2023-07-31T09:54:12;3.90;;;2.30;;
65009;SDS011;51556;50.002;22.014;2023-07-31T09:56:46;3.10;;;2.00;;
65009;SDS011;51556;50.002;22.014;2023-07-31T09:59:14;3.30;;;2.70;;
65009;SDS011;51556;50.002;22.014;2023-07-31T10:01:42;3.40;;;2.40;;
65009;SDS011;51556;50.002;22.014;2023-07-31T10:04:10;3.40;;;2.80;;
65009;SDS011;51556;50.002;22.014;2023-07-31T10:06:37;3.10;;;2.80;;
65009;SDS011;51556;50.002;22.014;2023-07-31T10:09:07;5.20;;;3.00;;
65009;SDS011;51556;50.002;22.014;2023-07-31T10:11:46;3.20;;;2.90;;
65009;SDS011;51556;50.002;22.014;2023-07-31T10:14:19;4.60;;;3.80;;
65009;SDS011;51556;50.002;22.014;2023-07-31T10:16:45;8.20;;;3.80;;
65009;SDS011;51556;50.002;22.014;2023-07-31T10:19:11;4.00;;;3.20;;
65009;SDS011;51556;50.002;22.014;2023-07-31T10:21:37;3.80;;;3.40;;
65009;SDS011;51556;50.002;22.014;2023-07-31T10:24:05;4.40;;;3.60;;
65009;SDS011;51556;50.002;22.014;2023-07-31T10:26:32;5.10;;;3.70;;
65009;SDS011;51556;50.002;22.014;2023-07-31T10:29:00;6.90;;;3.50;;
65009;SDS011;51556;50.002;22.014;2023-07-31T10:31:26;3.30;;;3.00;;
65009;SDS011;51556;50.002;22.014;2023-07-31T10:33:53;3.60;;;3.10;;
65009;SDS011;51556;50.002;22.014;2023-07-31T10:36:21;4.40;;;3.20;;
65009;SDS011;51556;50.002;22.014;2023-07-31T10:38:49;3.50;;;2.80;;
65009;SDS011;51556;50.002;22.014;2023-07-31T10:41:16;2.50;;;2.30;;
65009;SDS011;51556;50.002;22.014;2023-07-31T10:43:42;3.50;;;3.10;;
65009;SDS011;51556;50.002;22.014;2023-07-31T10:46:08;3.90;;;2.70;;
65009;SDS011;51556;50.002;22.014;2023-07-31T10:48:38;4.50;;;2.80;;
65009;SDS011;51556;50.002;22.014;2023-07-31T10:51:12;3.00;;;2.60;;
65009;SDS011;51556;50.002;22.014;2023-07-31T10:53:37;2.80;;;2.60;;
65009;SDS011;51556;50.002;22.014;2023-07-31T10:56:05;9.20;;;2.90;;
65009;SDS011;51556;50.002;22.014;2023-07-31T10:58:37;4.20;;;2.40;;
65009;SDS011;51556;50.002;22.014;2023-07-31T11:01:03;2.60;;;2.30;;
65009;SDS011;51556;50.002;22.014;2023-07-31T11:03:46;3.60;;;2.50;;
65009;SDS011;51556;50.002;22.014;2023-07-31T11:06:14;3.40;;;2.30;;
65009;SDS011;51556;50.002;22.014;2023-07-31T11:08:44;3.80;;;2.10;;
65009;SDS011;51556;50.002;22.014;2023-07-31T11:11:14;2.80;;;1.90;;
65009;SDS011;51556;50.002;22.014;2023-07-31T11:13:48;3.40;;;2.00;;
65009;SDS011;51556;50.002;22.014;2023-07-31T11:16:15;3.90;;;2.40;;
65009;SDS011;51556;50.002;22.014;2023-07-31T11:18:42;3.60;;;2.10;;
65009;SDS011;51556;50.002;22.014;2023-07-31T11:21:12;4.00;;;2.40;;
65009;SDS011;51556;50.002;22.014;2023-07-31T11:23:49;2.20;;;1.80;;
65009;SDS011;51556;50.002;22.014;2023-07-31T11:26:18;2.90;;;2.20;;
65009;SDS011;51556;50.002;22.014;2023-07-31T11:28:48;2.90;;;1.80;;
65009;SDS011;51556;50.002;22.014;2023-07-31T11:31:14;3.60;;;1.80;;
65009;SDS011;51556;50.002;22.014;2023-07-31T11:33:39;2.50;;;1.60;;
65009;SDS011;51556;50.002;22.014;2023-07-31T11:36:05;5.00;;;1.90;;
65009;SDS011;51556;50.002;22.014;2023-07-31T11:38:31;6.60;;;1.80;;
65009;SDS011;51556;50.002;22.014;2023-07-31T11:40:58;2.60;;;1.90;;
65009;SDS011;51556;50.002;22.014;2023-07-31T11:43:26;3.00;;;1.90;;
65009;SDS011;51556;50.002;22.014;2023-07-31T11:45:52;2.20;;;1.60;;
65009;SDS011;51556;50.002;22.014;2023-07-31T11:50:50;3.10;;;1.70;;
65009;SDS011;51556;50.002;22.014;2023-07-31T11:53:17;2.30;;;1.60;;
65009;SDS011;51556;50.002;22.014;2023-07-31T11:55:45;1.70;;;1.60;;
65009;SDS011;51556;50.002;22.014;2023-07-31T11:58:12;2.20;;;1.80;;
65009;SDS011;51556;50.002;22.014;2023-07-31T12:00:40;2.90;;;1.60;;
65009;SDS011;51556;50.002;22.014;2023-07-31T12:03:05;2.90;;;1.60;;
65009;SDS011;51556;50.002;22.014;2023-07-31T12:05:31;3.90;;;1.60;;
65009;SDS011;51556;50.002;22.014;2023-07-31T12:07:57;1.70;;;1.40;;
65009;SDS011;51556;50.002;22.014;2023-07-31T12:10:27;4.70;;;1.70;;
65009;SDS011;51556;50.002;22.014;2023-07-31T12:18:10;2.40;;;1.80;;
65009;SDS011;51556;50.002;22.014;2023-07-31T12:20:44;4.10;;;1.90;;
65009;SDS011;51556;50.002;22.014;2023-07-31T12:23:14;3.20;;;2.00;;
65009;SDS011;51556;50.002;22.014;2023-07-31T12:28:43;4.70;;;1.80;;
65009;SDS011;51556;50.002;22.014;2023-07-31T12:31:09;2.10;;;1.60;;
65009;SDS011;51556;50.002;22.014;2023-07-31T12:36:12;2.40;;;1.70;;
65009;SDS011;51556;50.002;22.014;2023-07-31T12:38:39;2.10;;;1.60;;
65009;SDS011;51556;50.002;22.014;2023-07-31T12:41:05;5.00;;;1.90;;
65009;SDS011;51556;50.002;22.014;2023-07-31T12:43:32;3.00;;;1.50;;
65009;SDS011;51556;50.002;22.014;2023-07-31T12:45:58;2.20;;;1.50;;
65009;SDS011;51556;50.002;22.014;2023-07-31T12:48:24;3.00;;;1.60;;
65009;SDS011;51556;50.002;22.014;2023-07-31T12:50:49;1.60;;;1.50;;
65009;SDS011;51556;50.002;22.014;2023-07-31T12:53:15;3.30;;;1.80;;
65009;SDS011;51556;50.002;22.014;2023-07-31T12:55:41;2.80;;;1.60;;
65009;SDS011;51556;50.002;22.014;2023-07-31T12:58:06;3.20;;;1.30;;
65009;SDS011;51556;50.002;22.014;2023-07-31T13:00:32;3.10;;;1.20;;
65009;SDS011;51556;50.002;22.014;2023-07-31T13:02:58;2.30;;;1.30;;
65009;SDS011;51556;50.002;22.014;2023-07-31T13:05:25;5.00;;;1.50;;
65009;SDS011;51556;50.002;22.014;2023-07-31T13:07:50;3.30;;;1.70;;
65009;SDS011;51556;50.002;22.014;2023-07-31T13:10:16;3.80;;;1.60;;
65009;SDS011;51556;50.002;22.014;2023-07-31T13:12:41;2.90;;;1.60;;
65009;SDS011;51556;50.002;22.014;2023-07-31T13:15:07;1.60;;;1.40;;
65009;SDS011;51556;50.002;22.014;2023-07-31T13:17:32;2.00;;;1.50;;
65009;SDS011;51556;50.002;22.014;2023-07-31T13:19:58;2.30;;;1.80;;
65009;SDS011;51556;50.002;22.014;2023-07-31T13:22:24;3.70;;;2.60;;
65009;SDS011;51556;50.002;22.014;2023-07-31T13:24:50;4.20;;;2.00;;
65009;SDS011;51556;50.002;22.014;2023-07-31T13:27:16;2.90;;;2.10;;
65009;SDS011;51556;50.002;22.014;2023-07-31T13:29:46;4.80;;;1.70;;
65009;SDS011;51556;50.002;22.014;2023-07-31T13:32:18;3.20;;;1.90;;
65009;SDS011;51556;50.002;22.014;2023-07-31T13:34:45;2.60;;;1.60;;
65009;SDS011;51556;50.002;22.014;2023-07-31T13:37:11;2.40;;;1.80;;
65009;SDS011;51556;50.002;22.014;2023-07-31T13:39:37;5.10;;;1.50;;
65009;SDS011;51556;50.002;22.014;2023-07-31T13:42:02;1.70;;;1.60;;
65009;SDS011;51556;50.002;22.014;2023-07-31T13:44:29;3.20;;;1.50;;
65009;SDS011;51556;50.002;22.014;2023-07-31T13:46:54;2.90;;;1.50;;
65009;SDS011;51556;50.002;22.014;2023-07-31T13:49:20;3.10;;;1.50;;
65009;SDS011;51556;50.002;22.014;2023-07-31T13:51:45;3.70;;;1.70;;
65009;SDS011;51556;50.002;22.014;2023-07-31T13:54:11;2.10;;;1.80;;
65009;SDS011;51556;50.002;22.014;2023-07-31T13:56:37;4.40;;;1.70;;
65009;SDS011;51556;50.002;22.014;2023-07-31T13:59:03;2.80;;;1.60;;
65009;SDS011;51556;50.002;22.014;2023-07-31T14:01:28;3.10;;;1.70;;
65009;SDS011;51556;50.002;22.014;2023-07-31T14:04:04;3.70;;;1.60;;
65009;SDS011;51556;50.002;22.014;2023-07-31T14:06:32;2.60;;;1.80;;
65009;SDS011;51556;50.002;22.014;2023-07-31T14:08:58;3.60;;;2.00;;
65009;SDS011;51556;50.002;22.014;2023-07-31T14:11:24;3.20;;;1.90;;
65009;SDS011;51556;50.002;22.014;2023-07-31T14:13:50;2.90;;;1.60;;
65009;SDS011;51556;50.002;22.014;2023-07-31T14:16:16;3.30;;;1.40;;
65009;SDS011;51556;50.002;22.014;2023-07-31T14:18:42;2.10;;;1.40;;
65009;SDS011;51556;50.002;22.014;2023-07-31T14:21:08;1.80;;;1.30;;
65009;SDS011;51556;50.002;22.014;2023-07-31T14:23:34;2.80;;;1.40;;
65009;SDS011;51556;50.002;22.014;2023-07-31T14:26:00;2.30;;;1.20;;
65009;SDS011;51556;50.002;22.014;2023-07-31T14:28:36;2.30;;;1.60;;
65009;SDS011;51556;50.002;22.014;2023-07-31T14:31:01;1.90;;;1.50;;
65009;SDS011;51556;50.002;22.014;2023-07-31T14:33:27;2.50;;;1.20;;
65009;SDS011;51556;50.002;22.014;2023-07-31T14:35:52;2.30;;;1.20;;
65009;SDS011;51556;50.002;22.014;2023-07-31T14:38:18;3.70;;;1.80;;
65009;SDS011;51556;50.002;22.014;2023-07-31T14:40:44;2.40;;;1.30;;
65009;SDS011;51556;50.002;22.014;2023-07-31T14:43:09;2.40;;;1.40;;
65009;SDS011;51556;50.002;22.014;2023-07-31T14:45:35;1.30;;;1.20;;
65009;SDS011;51556;50.002;22.014;2023-07-31T14:48:00;2.60;;;1.40;;
65009;SDS011;51556;50.002;22.014;2023-07-31T14:50:26;1.90;;;1.20;;
65009;SDS011;51556;50.002;22.014;2023-07-31T14:52:52;2.60;;;1.40;;